Ana Sayfa
METAR-TAF:

METAR-TAF

Havaalanları :

Santoron, Yunanistan

Enlem: 36-24N, Boylam: 025-29E, yükseklik: 38 m

Güncel hava durumu gözlemi

Rapor saat 12:20 UTC de 38 dakika önce yapıldı.
Rüzgar kuzey/kuzeybatıdan 16 kt
Sıcaklık 30°C
Nem 43%
Basınç 1008 hPa
Görüş mesafesi 10 km veya daha fazla
2500 ft yükseklikte az bulutlu

METAR: LGSR 201220Z 34016KT 9999 FEW025 30/16 Q1008

Saat: 15:58 (12:58 UTC)

Tahmin

Rapor saat 11:00 UTC de 1 saat ve 58 dakika önce yapıldı.
Ayın 20'si saat 12 UTC'den ayın 21'si saat 12 UTC'ye kadar geçerli Tahmin
Rüzgar kuzey/kuzeybatıdan 20 kt
Görüş mesafesi 10 km veya daha fazla
2500 ft yükseklikte az bulutlu

TAF: LGSR 201100Z 2012/2112 34020KT 9999 FEW025

4.000'den fazla havaalanı için hava durumu gözlemleri ve tahminleri (METAR ve TAF raporları).

Kullanılabilir istasyonlar harita üzerinde sarı ve kırmızı noktalarla gösterilir.

İstasyonun adını görmek için fareyi noktanın üzerinde gezdirin.

Sonrasında hava gözlem ve tahminlerini görmek için tıklayın.

Haritayı değiştirmek için: yaklaştırmak için siyah artı işaretli yeşil düğmeye ve uzaklaştırmak için de eksi işaretli düğmeye hızla tıklayın; bitişik haritalar için yeşil okları kullanın.


METAR-TAF: